Data for 12/07/2007

Time Sea-Level Adjusted Pressure Absolute Pressure Temperature Relative Humidity Dew Point   
(mb) (inHg) (mb) (inHg) (C) (F) (%) (C) (F)
00:05 1012 29.88 841 24.83 -3.4 25.8 86 -5.4 22.2
00:10 1012 29.88 841 24.83 -3.5 25.7 85 -5.7 21.8
00:15 1012 29.88 841 24.83 -3.9 25 86 -5.9 21.5
00:20 1012 29.88 841 24.83 -3.7 25.3 86 -5.8 21.6
00:25 1011 29.85 841 24.83 -3.5 25.7 85 -5.7 21.7
00:30 1012 29.88 841 24.83 -3.4 25.9 85 -5.6 21.9
00:35 1012 29.88 841 24.83 -3.5 25.8 85 -5.6 21.9
00:40 1012 29.88 841 24.83 -3.6 25.6 85 -5.8 21.6
00:45 1012 29.88 841 24.83 -3.6 25.5 86 -5.6 22
00:50 1012 29.88 841 24.83 -3.5 25.8 85 -5.6 21.8
00:55 1012 29.88 841 24.83 -3.4 25.8 86 -5.4 22.3
01:00 1012 29.88 841 24.83 -3.6 25.6 88 -5.3 22.5
01:05 1012 29.88 841 24.83 -3.5 25.7 86 -5.6 22
01:10 1012 29.88 841 24.83 -3.5 25.8 86 -5.5 22
01:15 1012 29.88 841 24.83 -3.5 25.7 86 -5.6 22
01:20 1011 29.85 841 24.83 -3.7 25.3 87 -5.6 22
01:25 1011 29.85 841 24.83 -3.9 25 87 -5.8 21.5
01:30 1011 29.85 841 24.83 -4.1 24.6 86 -6.1 21.1
01:35 1011 29.85 840 24.81 -4 24.7 86 -6 21.1
01:40 1011 29.85 840 24.81 -4 24.8 86 -6 21.1
01:45 1011 29.85 840 24.81 -4 24.8 86 -6 21.2
01:50 1011 29.85 840 24.81 -4.1 24.7 86 -6 21.1
01:55 1011 29.85 840 24.81 -4 24.8 85 -6.2 20.8
02:00 1011 29.85 840 24.81 -4 24.9 84 -6.3 20.6
02:05 1011 29.85 840 24.81 -3.9 24.9 83 -6.3 20.6
02:10 1011 29.85 840 24.81 -3.9 24.9 83 -6.4 20.6
02:15 1011 29.85 840 24.81 -4 24.9 83 -6.4 20.4
02:20 1011 29.85 840 24.81 -4 24.9 83 -6.5 20.4
02:25 1011 29.85 840 24.81 -4 24.8 82 -6.6 20.1
02:30 1011 29.85 840 24.81 -4.1 24.7 82 -6.7 19.9
02:35 1011 29.85 840 24.81 -4.2 24.5 82 -6.8 19.8
02:40 1011 29.85 840 24.81 -4.3 24.3 81 -7 19.4
02:45 1011 29.85 840 24.81 -4.4 24 82 -7 19.4
02:50 1011 29.85 840 24.81 -4.6 23.7 83 -7 19.4
02:55 1011 29.85 840 24.81 -4.8 23.4 84 -7.1 19.2
03:00 1011 29.85 840 24.81 -4.9 23.2 84 -7.1 19.1
03:05 1011 29.85 840 24.81 -5 23 85 -7.2 19.1
03:10 1011 29.85 840 24.81 -5.2 22.7 86 -7.2 19.1
03:15 1011 29.85 840 24.81 -5.3 22.5 86 -7.2 19
03:20 1011 29.85 840 24.81 -5.4 22.3 87 -7.2 19
03:25 1011 29.85 840 24.81 -5.6 22 87 -7.3 18.8
03:30 1011 29.85 840 24.81 -5.7 21.7 88 -7.4 18.7
03:35 1011 29.85 840 24.81 -5.8 21.5 89 -7.4 18.7
03:40 1011 29.85 840 24.81 -5.9 21.3 89 -7.4 18.6
03:45 1011 29.85 840 24.81 -6 21.2 90 -7.4 18.6
03:50 1011 29.85 841 24.83 -6 21.1 90 -7.4 18.6
03:55 1011 29.85 841 24.83 -6.1 21 91 -7.4 18.6
04:00 1011 29.85 841 24.83 -6.2 20.9 91 -7.5 18.5
04:05 1011 29.85 841 24.83 -6.2 20.8 91 -7.5 18.6
04:10 1011 29.85 841 24.83 -6.3 20.7 91 -7.5 18.6
04:15 1012 29.88 841 24.83 -6.2 20.8 91 -7.4 18.6
04:20 1012 29.88 841 24.83 -6.3 20.7 92 -7.4 18.7
04:25 1012 29.88 841 24.83 -6.3 20.6 92 -7.4 18.6
04:30 1012 29.88 841 24.83 -6.3 20.6 92 -7.4 18.6
04:35 1012 29.88 841 24.83 -6.3 20.6 92 -7.5 18.6
04:40 1012 29.88 841 24.83 -6.3 20.6 92 -7.5 18.5
04:45 1012 29.88 841 24.83 -6.4 20.6 92 -7.5 18.5
04:50 1012 29.88 841 24.83 -6.4 20.6 92 -7.5 18.5
04:55 1012 29.88 841 24.83 -6.4 20.5 92 -7.5 18.5
05:00 1012 29.88 841 24.83 -6.4 20.4 91 -7.6 18.3
05:05 1012 29.88 841 24.83 -6.4 20.4 91 -7.7 18.2
05:10 1012 29.88 841 24.83 -6.4 20.4 91 -7.7 18.2
05:15 1012 29.88 841 24.83 -6.4 20.4 90 -7.8 18
05:20 1012 29.88 841 24.83 -6.5 20.2 91 -7.8 18
05:25 1012 29.88 841 24.83 -6.6 20.1 91 -7.8 17.9
05:30 1012 29.88 841 24.83 -6.7 20 91 -7.9 17.8
05:35 1012 29.88 841 24.83 -6.8 19.8 92 -7.9 17.7
05:40 1012 29.88 841 24.83 -6.8 19.7 91 -8.1 17.5
05:45 1012 29.88 841 24.83 -6.8 19.7 91 -8.1 17.5
05:50 1012 29.88 841 24.83 -6.9 19.7 91 -8.1 17.4
05:55 1012 29.88 841 24.83 -6.9 19.6 91 -8.1 17.5
06:00 1012 29.88 841 24.83 -6.8 19.7 91 -8.1 17.5
06:05 1012 29.88 841 24.83 -6.9 19.6 92 -8 17.6
06:10 1012 29.88 841 24.83 -6.9 19.6 91 -8.1 17.5
06:15 1012 29.88 841 24.83 -6.9 19.5 91 -8.1 17.4
06:20 1012 29.88 841 24.83 -7 19.5 91 -8.2 17.2
06:25 1012 29.88 841 24.83 -7 19.5 90 -8.3 17
06:30 1012 29.88 841 24.83 -7 19.5 91 -8.3 17.1
06:35 1012 29.88 841 24.83 -7 19.4 90 -8.3 17
06:40 1012 29.88 841 24.83 -7 19.5 91 -8.2 17.2
06:45 1012 29.88 841 24.83 -7 19.3 91 -8.2 17.2
06:50 1012 29.88 841 24.83 -7.1 19.3 91 -8.3 17
06:55 1012 29.88 842 24.86 -7.1 19.3 91 -8.3 17
07:00 1012 29.88 842 24.86 -7 19.4 90 -8.3 17
07:05 1013 29.91 842 24.86 -7 19.4 90 -8.3 17.1
07:10 1013 29.91 842 24.86 -7 19.4 91 -8.3 17.1
07:15 1013 29.91 842 24.86 -7 19.4 91 -8.3 17.1
07:20 1013 29.91 842 24.86 -7 19.3 91 -8.3 17
07:25 1013 29.91 842 24.86 -7.1 19.3 91 -8.3 17
07:30 1013 29.91 842 24.86 -7.1 19.2 91 -8.3 17
07:35 1013 29.91 842 24.86 -7.2 19.1 91 -8.4 16.9
07:40 1013 29.91 842 24.86 -7.1 19.1 91 -8.4 16.8
07:45 1013 29.91 842 24.86 -7.1 19.3 90 -8.5 16.8
07:50 1013 29.91 842 24.86 -7.1 19.3 90 -8.4 16.8
07:55 1013 29.91 842 24.86 -7.1 19.3 90 -8.5 16.8
08:00 1013 29.91 842 24.86 -7 19.3 89 -8.5 16.7
08:05 1013 29.91 842 24.86 -7 19.3 89 -8.5 16.6
08:10 1013 29.91 842 24.86 -7 19.3 89 -8.6 16.5
08:15 1013 29.91 842 24.86 -7 19.3 89 -8.6 16.6
08:20 1013 29.91 842 24.86 -7 19.4 89 -8.6 16.6
08:25 1013 29.91 842 24.86 -7 19.4 89 -8.6 16.6
08:30 1013 29.91 842 24.86 -7 19.4 89 -8.6 16.6
08:35 1013 29.91 842 24.86 -7 19.4 89 -8.6 16.6
08:40 1013 29.91 842 24.86 -7 19.4 89 -8.6 16.5
08:45 1013 29.91 842 24.86 -7 19.4 89 -8.5 16.7
08:50 1013 29.91 842 24.86 -7 19.4 89 -8.5 16.8
08:55 1013 29.91 842 24.86 -7 19.4 90 -8.4 16.9
09:00 1013 29.91 842 24.86 -7 19.3 90 -8.4 16.8
09:05 1013 29.91 842 24.86 -7 19.3 89 -8.5 16.6
09:10 1013 29.91 842 24.86 -7 19.4 89 -8.5 16.7
09:15 1013 29.91 842 24.86 -7.1 19.3 89 -8.6 16.6
09:20 1013 29.91 842 24.86 -7 19.3 89 -8.6 16.5
09:25 1013 29.91 842 24.86 -7 19.3 88 -8.6 16.4
09:30 1013 29.91 842 24.86 -7 19.3 88 -8.7 16.4
09:35 1013 29.91 842 24.86 -7.1 19.3 88 -8.7 16.4
09:40 1013 29.91 843 24.89 -7.1 19.3 88 -8.7 16.3
09:45 1013 29.91 843 24.89 -7.1 19.2 88 -8.8 16.2
09:50 1013 29.91 843 24.89 -7.1 19.2 87 -8.9 16
09:55 1013 29.91 843 24.89 -7.1 19.3 87 -8.9 16
10:00 1013 29.91 843 24.89 -7.1 19.3 87 -8.9 15.9
10:05 1014 29.94 843 24.89 -7 19.4 87 -8.9 16
10:10 1014 29.94 843 24.89 -7 19.4 86 -8.9 15.9
10:15 1014 29.94 843 24.89 -6.9 19.5 86 -8.9 15.9
10:20 1014 29.94 843 24.89 -6.8 19.7 85 -8.9 16
10:25 1014 29.94 843 24.89 -6.8 19.7 85 -8.9 16
10:30 1014 29.94 843 24.89 -6.8 19.7 86 -8.8 16.1
10:35 1014 29.94 843 24.89 -6.8 19.7 85 -8.9 16
10:40 1014 29.94 843 24.89 -6.8 19.7 85 -8.9 16
10:45 1014 29.94 843 24.89 -6.8 19.8 85 -8.8 16.1
10:50 1014 29.94 843 24.89 -6.8 19.8 85 -8.9 16.1
10:55 1014 29.94 843 24.89 -6.8 19.8 85 -8.9 15.9
11:00 1014 29.94 843 24.89 -6.8 19.7 85 -8.9 16
11:05 1014 29.94 843 24.89 -6.8 19.7 85 -9 15.8
11:10 1014 29.94 843 24.89 -6.8 19.7 85 -9 15.8
11:15 1014 29.94 843 24.89 -6.8 19.8 84 -9.1 15.6
11:20 1014 29.94 843 24.89 -6.8 19.8 83 -9.2 15.5
11:25 1014 29.94 843 24.89 -6.7 19.9 82 -9.3 15.3
11:30 1014 29.94 843 24.89 -6.7 19.9 82 -9.3 15.3
11:35 1014 29.94 843 24.89 -6.7 20 81 -9.4 15.1
11:40 1014 29.94 843 24.89 -6.7 19.9 80 -9.5 14.8
11:45 1014 29.94 843 24.89 -6.7 19.9 80 -9.7 14.6
11:50 1014 29.94 843 24.89 -6.7 19.9 80 -9.6 14.8
11:55 1014 29.94 843 24.89 -6.6 20.1 79 -9.7 14.6
12:00 1014 29.94 843 24.89 -6.5 20.3 78 -9.7 14.5
12:05 1014 29.94 843 24.89 -6.5 20.4 77 -9.8 14.3
12:10 1014 29.94 843 24.89 -6.5 20.2 78 -9.8 14.4
12:15 1014 29.94 843 24.89 -6.5 20.3 77 -9.8 14.3
12:20 1014 29.94 843 24.89 -6.5 20.3 78 -9.8 14.4
12:25 1014 29.94 843 24.89 -6.4 20.4 77 -9.8 14.4
12:30 1014 29.94 843 24.89 -6.4 20.4 78 -9.7 14.5
12:35 1014 29.94 843 24.89 -6.4 20.5 77 -9.7 14.5
12:40 1014 29.94 843 24.89 -6.3 20.6 77 -9.7 14.5
12:45 1014 29.94 843 24.89 -6.2 20.8 77 -9.7 14.5
12:50 1014 29.94 843 24.89 -6.3 20.7 77 -9.7 14.5
12:55 1014 29.94 843 24.89 -6.3 20.6 76 -9.8 14.3
13:00 1014 29.94 843 24.89 -6.3 20.7 76 -9.8 14.3
13:05 1014 29.94 843 24.89 -6.2 20.8 75 -9.9 14.1
13:10 1014 29.94 843 24.89 -6.2 20.8 75 -9.9 14.2
13:15 1014 29.94 843 24.89 -6.2 20.8 74 -10.1 13.9
13:20 1014 29.94 843 24.89 -6.2 20.8 75 -9.9 14.1
13:25 1014 29.94 843 24.89 -6.1 21 75 -9.9 14.2
13:30 1014 29.94 843 24.89 -6.2 20.8 75 -9.9 14.2
13:35 1014 29.94 843 24.89 -6.2 20.8 75 -9.9 14.1
13:40 1014 29.94 843 24.89 -6.3 20.7 76 -9.9 14.2
13:45 1014 29.94 843 24.89 -6.4 20.5 76 -9.9 14.2
13:50 1014 29.94 843 24.89 -6.4 20.4 75 -10.1 13.8
13:55 1014 29.94 843 24.89 -6.5 20.3 75 -10.3 13.5
14:00 1014 29.94 843 24.89 -6.5 20.4 75 -10.2 13.7
14:05 1014 29.94 843 24.89 -6.4 20.5 74 -10.3 13.5
14:10 1014 29.94 843 24.89 -6.4 20.5 75 -10.2 13.7
14:15 1014 29.94 843 24.89 -6.4 20.5 75 -10.2 13.7
14:20 1014 29.94 843 24.89 -6.3 20.6 75 -10.1 13.8
14:25 1014 29.94 843 24.89 -6.4 20.4 75 -10.2 13.6
14:30 1014 29.94 843 24.89 -6.4 20.4 74 -10.2 13.6
14:35 1014 29.94 843 24.89 -6.4 20.4 75 -10.2 13.6
14:40 1014 29.94 843 24.89 -6.5 20.4 75 -10.2 13.6
14:45 1014 29.94 843 24.89 -6.5 20.4 74 -10.3 13.5
14:50 1014 29.94 843 24.89 -6.5 20.4 74 -10.4 13.3
14:55 1014 29.94 843 24.89 -6.5 20.3 75 -10.2 13.6
15:00 1014 29.94 843 24.89 -6.5 20.2 75 -10.2 13.6
15:05 1014 29.94 843 24.89 -6.6 20.1 77 -10 14
15:10 1014 29.94 843 24.89 -6.7 19.9 77 -10.2 13.7
15:15 1014 29.94 843 24.89 -6.7 19.9 77 -10.1 13.7
15:20 1014 29.94 844 24.92 -6.8 19.8 77 -10.2 13.7
15:25 1014 29.94 844 24.92 -6.8 19.7 76 -10.4 13.2
15:30 1014 29.94 844 24.92 -6.9 19.6 75 -10.6 12.9
15:35 1015 29.97 844 24.92 -7 19.5 76 -10.4 13.2
15:40 1015 29.97 844 24.92 -7 19.4 77 -10.4 13.2
15:45 1015 29.97 844 24.92 -7.1 19.3 77 -10.4 13.3
15:50 1015 29.97 844 24.92 -7.1 19.2 77 -10.5 13.1
15:55 1015 29.97 844 24.92 -7.1 19.2 76 -10.7 12.8
16:00 1015 29.97 844 24.92 -7.1 19.1 77 -10.6 12.9
16:05 1015 29.97 844 24.92 -7.2 19.1 76 -10.6 12.8
16:10 1015 29.97 844 24.92 -7.2 19 76 -10.7 12.7
16:15 1015 29.97 844 24.92 -7.2 19 76 -10.8 12.6
16:20 1015 29.97 844 24.92 -7.2 19 76 -10.7 12.7
16:25 1015 29.97 844 24.92 -7.2 19.1 76 -10.8 12.6
16:30 1015 29.97 844 24.92 -7.2 19 77 -10.6 12.9
16:35 1015 29.97 844 24.92 -7.3 18.9 77 -10.6 12.9
16:40 1015 29.97 844 24.92 -7.4 18.8 77 -10.6 12.8
16:45 1015 29.97 844 24.92 -7.4 18.6 78 -10.6 12.9
16:50 1015 29.97 844 24.92 -7.5 18.6 78 -10.6 12.8
16:55 1015 29.97 844 24.92 -7.5 18.5 78 -10.7 12.7
17:00 1015 29.97 844 24.92 -7.5 18.4 78 -10.7 12.7
17:05 1015 29.97 844 24.92 -7.6 18.4 77 -10.9 12.4
17:10 1015 29.97 844 24.92 -7.6 18.4 77 -10.9 12.4
17:15 1015 29.97 844 24.92 -7.6 18.4 77 -10.9 12.4
17:20 1015 29.97 844 24.92 -7.6 18.4 77 -11 12.3
17:25 1015 29.97 844 24.92 -7.6 18.3 77 -10.9 12.3
17:30 1015 29.97 845 24.95 -7.7 18.2 77 -11.1 12
17:35 1015 29.97 845 24.95 -7.6 18.3 76 -11.2 11.9
17:40 1015 29.97 845 24.95 -7.6 18.4 75 -11.3 11.7
17:45 1015 29.97 845 24.95 -7.5 18.4 74 -11.3 11.6
17:50 1015 29.97 845 24.95 -7.6 18.4 74 -11.4 11.5
17:55 1016 30 845 24.95 -7.6 18.3 74 -11.4 11.4
18:00 1016 30 845 24.95 -7.6 18.2 74 -11.6 11.1
18:05 1016 30 845 24.95 -7.6 18.3 73 -11.6 11.1
18:10 1016 30 845 24.95 -7.6 18.3 73 -11.6 11.1
18:15 1016 30 845 24.95 -7.7 18.2 73 -11.8 10.8
18:20 1016 30 845 24.95 -7.7 18.2 72 -11.8 10.7
18:25 1016 30 845 24.95 -7.7 18.2 72 -11.8 10.7
18:30 1016 30 845 24.95 -7.7 18.2 72 -11.8 10.7
18:35 1016 30 845 24.95 -7.6 18.3 72 -11.8 10.7
18:40 1016 30 845 24.95 -7.6 18.4 72 -11.7 10.9
18:45 1016 30 845 24.95 -7.5 18.4 72 -11.7 11
18:50 1016 30 845 24.95 -7.5 18.4 73 -11.6 11.1
18:55 1016 30 845 24.95 -7.6 18.4 74 -11.5 11.3
19:00 1016 30 845 24.95 -7.6 18.4 73 -11.6 11.2
19:05 1016 30 845 24.95 -7.6 18.4 74 -11.5 11.3
19:10 1016 30 845 24.95 -7.5 18.4 73 -11.5 11.3
19:15 1016 30 845 24.95 -7.6 18.4 73 -11.6 11.2
19:20 1016 30 845 24.95 -7.6 18.4 73 -11.6 11
19:25 1016 30 845 24.95 -7.6 18.3 73 -11.7 11
19:30 1016 30 845 24.95 -7.6 18.2 73 -11.7 10.9
19:35 1016 30 845 24.95 -7.6 18.3 72 -11.9 10.7
19:40 1016 30 845 24.95 -7.6 18.2 73 -11.8 10.8
19:45 1016 30 845 24.95 -7.7 18.1 72 -11.8 10.7
19:50 1016 30 845 24.95 -7.7 18.1 72 -11.9 10.7
19:55 1016 30 845 24.95 -7.8 18 72 -12 10.4
20:00 1016 30 845 24.95 -7.7 18.1 72 -12 10.4
20:05 1016 30 845 24.95 -7.7 18.1 72 -12 10.5
20:10 1016 30 845 24.95 -7.8 18 72 -12 10.3
20:15 1016 30 845 24.95 -7.8 18 71 -12.1 10.1
20:20 1016 30 845 24.95 -7.8 18 72 -12 10.3
20:25 1016 30 845 24.95 -7.8 17.9 71 -12.1 10.1
20:30 1016 30 845 24.95 -7.9 17.8 72 -12.2 10.1
20:35 1016 30 845 24.95 -8 17.6 72 -12.2 10
20:40 1016 30 845 24.95 -8.1 17.5 72 -12.2 10
20:45 1016 30 845 24.95 -8.1 17.5 71 -12.4 9.7
20:50 1016 30 846 24.98 -8 17.6 72 -12.3 9.9
20:55 1016 30 846 24.98 -8 17.6 71 -12.4 9.7
21:00 1016 30 846 24.98 -8 17.5 71 -12.4 9.7
21:05 1016 30 846 24.98 -8 17.6 72 -12.2 10
21:10 1016 30 846 24.98 -8 17.5 72 -12.3 9.9
21:15 1016 30 846 24.98 -8.1 17.5 71 -12.4 9.6
21:20 1016 30 846 24.98 -8.1 17.5 70 -12.7 9.2
21:25 1016 30 846 24.98 -8 17.5 70 -12.5 9.5
21:30 1016 30 846 24.98 -8.1 17.3 69 -12.8 9
21:35 1016 30 846 24.98 -8.2 17.3 69 -12.9 8.9
21:40 1017 30.03 846 24.98 -8.3 17.1 68 -13.1 8.4
21:45 1016 30 846 24.98 -8.3 17.2 67 -13.3 8.1
21:50 1017 30.03 846 24.98 -8.3 17.1 67 -13.3 8
21:55 1017 30.03 846 24.98 -8.3 17 65 -13.8 7.2
22:00 1017 30.03 846 24.98 -8.4 17 65 -13.8 7.2
22:05 1017 30.03 846 24.98 -8.4 16.8 64 -14.1 6.7
22:10 1017 30.03 846 24.98 -8.5 16.8 63 -14.2 6.4
22:15 1017 30.03 846 24.98 -8.3 17 61 -14.5 5.9
22:20 1017 30.03 846 24.98 -8.3 17.1 62 -14.3 6.3
22:25 1017 30.03 846 24.98 -8.3 17 63 -14.1 6.6
22:30 1017 30.03 846 24.98 -8.3 17.1 63 -14.1 6.6
22:35 1017 30.03 846 24.98 -8.3 17.1 62 -14.4 6.1
22:40 1017 30.03 846 24.98 -8.3 17.1 63 -14.2 6.4
22:45 1017 30.03 846 24.98 -8.3 17.1 61 -14.6 5.8
22:50 1017 30.03 846 24.98 -8.2 17.2 61 -14.5 5.9
22:55 1017 30.03 846 24.98 -8.2 17.2 60 -14.7 5.5
23:00 1017 30.03 846 24.98 -8.2 17.2 61 -14.4 6
23:05 1017 30.03 846 24.98 -8.3 17 61 -14.6 5.8
23:10 1017 30.03 846 24.98 -8.4 16.9 62 -14.5 5.9
23:15 1017 30.03 846 24.98 -8.5 16.8 62 -14.5 5.9
23:20 1017 30.03 846 24.98 -8.5 16.8 63 -14.4 6.1
23:25 1017 30.03 846 24.98 -8.4 16.8 63 -14.4 6.1
23:30 1017 30.03 846 24.98 -8.5 16.8 62 -14.4 6
23:35 1017 30.03 846 24.98 -8.5 16.8 63 -14.3 6.2
23:40 1017 30.03 846 24.98 -8.5 16.8 63 -14.4 6.1
23:45 1017 30.03 846 24.98 -8.5 16.7 63 -14.3 6.2
23:50 1017 30.03 846 24.98 -8.5 16.7 63 -14.3 6.2
23:55 1017 30.03 846 24.98 -8.5 16.6 63 -14.4 6
24:00 1017 30.03 846 24.98 -8.5 16.7 63 -14.3 6.2